sensor_id;sensor_type;location;lat;lon;timestamp;pressure;altitude;pressure_sealevel;temperature;humidity
20455;BME280;10386;54.314;10.022;2023-04-30T00:02:14;102463.91;;;3.95;100.00
20455;BME280;10386;54.314;10.022;2023-04-30T00:04:40;102466.50;;;4.00;100.00
20455;BME280;10386;54.314;10.022;2023-04-30T00:07:07;102463.91;;;3.95;100.00
20455;BME280;10386;54.314;10.022;2023-04-30T00:09:34;102472.91;;;3.93;100.00
20455;BME280;10386;54.314;10.022;2023-04-30T00:12:01;102475.69;;;3.88;100.00
20455;BME280;10386;54.314;10.022;2023-04-30T00:14:27;102472.31;;;3.76;100.00
20455;BME280;10386;54.314;10.022;2023-04-30T00:16:54;102477.91;;;3.64;100.00
20455;BME280;10386;54.314;10.022;2023-04-30T00:19:21;102473.34;;;3.69;100.00
20455;BME280;10386;54.314;10.022;2023-04-30T00:21:48;102469.84;;;3.62;100.00
20455;BME280;10386;54.314;10.022;2023-04-30T00:24:14;102478.75;;;3.66;100.00
20455;BME280;10386;54.314;10.022;2023-04-30T00:26:41;102476.06;;;3.66;100.00
20455;BME280;10386;54.314;10.022;2023-04-30T00:29:09;102479.19;;;3.40;100.00
20455;BME280;10386;54.314;10.022;2023-04-30T00:31:36;102488.28;;;3.30;100.00
20455;BME280;10386;54.314;10.022;2023-04-30T00:34:03;102487.53;;;3.21;100.00
20455;BME280;10386;54.314;10.022;2023-04-30T00:36:30;102488.38;;;3.24;100.00
20455;BME280;10386;54.314;10.022;2023-04-30T00:38:57;102492.69;;;3.34;100.00
20455;BME280;10386;54.314;10.022;2023-04-30T00:41:24;102490.81;;;3.39;100.00
20455;BME280;10386;54.314;10.022;2023-04-30T00:43:51;102497.06;;;3.40;100.00
20455;BME280;10386;54.314;10.022;2023-04-30T00:46:18;102494.31;;;3.46;100.00
20455;BME280;10386;54.314;10.022;2023-04-30T00:48:44;102489.81;;;3.46;100.00
20455;BME280;10386;54.314;10.022;2023-04-30T00:51:11;102505.25;;;3.32;100.00
20455;BME280;10386;54.314;10.022;2023-04-30T00:53:39;102503.34;;;3.39;100.00
20455;BME280;10386;54.314;10.022;2023-04-30T00:56:07;102496.34;;;3.30;100.00
20455;BME280;10386;54.314;10.022;2023-04-30T00:58:34;102502.06;;;3.06;100.00
20455;BME280;10386;54.314;10.022;2023-04-30T01:01:05;102506.47;;;3.10;100.00
20455;BME280;10386;54.314;10.022;2023-04-30T01:03:32;102505.47;;;3.17;100.00
20455;BME280;10386;54.314;10.022;2023-04-30T01:06:02;102502.66;;;3.25;100.00
20455;BME280;10386;54.314;10.022;2023-04-30T01:08:29;102499.97;;;3.26;100.00
20455;BME280;10386;54.314;10.022;2023-04-30T01:13:38;102512.34;;;3.35;100.00
20455;BME280;10386;54.314;10.022;2023-04-30T01:16:16;102519.69;;;3.24;100.00
20455;BME280;10386;54.314;10.022;2023-04-30T01:18:51;102518.13;;;3.08;100.00
20455;BME280;10386;54.314;10.022;2023-04-30T01:21:20;102522.88;;;2.88;100.00
20455;BME280;10386;54.314;10.022;2023-04-30T01:26:52;102509.41;;;2.92;100.00
20455;BME280;10386;54.314;10.022;2023-04-30T01:29:25;102504.75;;;3.05;100.00
20455;BME280;10386;54.314;10.022;2023-04-30T01:31:53;102507.22;;;3.20;100.00
20455;BME280;10386;54.314;10.022;2023-04-30T01:34:19;102515.34;;;3.15;100.00
20455;BME280;10386;54.314;10.022;2023-04-30T01:37:23;102506.41;;;3.15;100.00
20455;BME280;10386;54.314;10.022;2023-04-30T01:42:35;102507.22;;;3.20;100.00
20455;BME280;10386;54.314;10.022;2023-04-30T01:51:08;102505.66;;;3.04;100.00
20455;BME280;10386;54.314;10.022;2023-04-30T01:53:41;102495.66;;;3.15;100.00
20455;BME280;10386;54.314;10.022;2023-04-30T01:56:17;102502.75;;;3.20;100.00
20455;BME280;10386;54.314;10.022;2023-04-30T01:58:47;102508.94;;;3.25;100.00
20455;BME280;10386;54.314;10.022;2023-04-30T02:01:28;102507.06;;;3.30;100.00
20455;BME280;10386;54.314;10.022;2023-04-30T02:03:56;102518.47;;;3.46;100.00
20455;BME280;10386;54.314;10.022;2023-04-30T02:06:23;102512.97;;;3.53;100.00
20455;BME280;10386;54.314;10.022;2023-04-30T02:08:55;102504.88;;;3.56;100.00
20455;BME280;10386;54.314;10.022;2023-04-30T02:11:29;102502.94;;;3.66;100.00
20455;BME280;10386;54.314;10.022;2023-04-30T02:13:56;102508.34;;;3.63;100.00
20455;BME280;10386;54.314;10.022;2023-04-30T02:16:23;102510.78;;;3.76;100.00
20455;BME280;10386;54.314;10.022;2023-04-30T02:18:50;102515.19;;;3.82;100.00
20455;BME280;10386;54.314;10.022;2023-04-30T02:21:17;102509.59;;;3.94;100.00
20455;BME280;10386;54.314;10.022;2023-04-30T02:23:44;102520.28;;;3.98;100.00
20455;BME280;10386;54.314;10.022;2023-04-30T02:26:10;102510.38;;;4.00;100.00
20455;BME280;10386;54.314;10.022;2023-04-30T02:28:37;102514.00;;;3.98;100.00
20455;BME280;10386;54.314;10.022;2023-04-30T02:31:04;102514.63;;;4.11;100.00
20455;BME280;10386;54.314;10.022;2023-04-30T02:33:31;102520.22;;;4.01;100.00
20455;BME280;10386;54.314;10.022;2023-04-30T02:35:59;102518.47;;;3.99;100.00
20455;BME280;10386;54.314;10.022;2023-04-30T02:38:26;102521.06;;;4.03;100.00
20455;BME280;10386;54.314;10.022;2023-04-30T02:40:53;102520.19;;;4.03;100.00
20455;BME280;10386;54.314;10.022;2023-04-30T02:43:19;102517.38;;;4.08;100.00
20455;BME280;10386;54.314;10.022;2023-04-30T02:45:46;102519.09;;;4.14;100.00
20455;BME280;10386;54.314;10.022;2023-04-30T02:48:14;102516.47;;;4.09;100.00
20455;BME280;10386;54.314;10.022;2023-04-30T02:50:40;102518.34;;;4.06;100.00
20455;BME280;10386;54.314;10.022;2023-04-30T02:53:07;102513.06;;;4.00;100.00
20455;BME280;10386;54.314;10.022;2023-04-30T02:55:34;102515.75;;;4.00;100.00
20455;BME280;10386;54.314;10.022;2023-04-30T02:58:01;102517.66;;;3.94;100.00
20455;BME280;10386;54.314;10.022;2023-04-30T03:00:27;102512.44;;;3.85;100.00
20455;BME280;10386;54.314;10.022;2023-04-30T03:02:54;102511.56;;;3.84;100.00
20455;BME280;10386;54.314;10.022;2023-04-30T03:05:21;102511.81;;;3.69;100.00
20455;BME280;10386;54.314;10.022;2023-04-30T03:07:48;102519.94;;;3.65;100.00
20455;BME280;10386;54.314;10.022;2023-04-30T03:10:15;102527.16;;;3.61;100.00
20455;BME280;10386;54.314;10.022;2023-04-30T03:12:41;102528.19;;;3.53;100.00
20455;BME280;10386;54.314;10.022;2023-04-30T03:15:08;102517.38;;;3.57;100.00
20455;BME280;10386;54.314;10.022;2023-04-30T03:17:36;102525.56;;;3.48;100.00
20455;BME280;10386;54.314;10.022;2023-04-30T03:20:03;102520.34;;;3.39;100.00
20455;BME280;10386;54.314;10.022;2023-04-30T03:22:29;102529.31;;;3.37;100.00
20455;BME280;10386;54.314;10.022;2023-04-30T03:24:56;102533.81;;;3.36;100.00
20455;BME280;10386;54.314;10.022;2023-04-30T03:27:23;102531.22;;;3.30;100.00
20455;BME280;10386;54.314;10.022;2023-04-30T03:29:49;102539.38;;;3.24;100.00
20455;BME280;10386;54.314;10.022;2023-04-30T03:32:16;102535.00;;;3.17;100.00
20455;BME280;10386;54.314;10.022;2023-04-30T03:34:43;102533.22;;;3.16;100.00
20455;BME280;10386;54.314;10.022;2023-04-30T03:37:09;102537.84;;;3.05;100.00
20455;BME280;10386;54.314;10.022;2023-04-30T03:39:36;102544.09;;;3.07;100.00
20455;BME280;10386;54.314;10.022;2023-04-30T03:42:03;102552.09;;;3.09;100.00
20455;BME280;10386;54.314;10.022;2023-04-30T03:44:29;102553.88;;;3.11;100.00
20455;BME280;10386;54.314;10.022;2023-04-30T03:46:56;102553.91;;;3.07;100.00
20455;BME280;10386;54.314;10.022;2023-04-30T03:49:23;102551.19;;;3.10;100.00
20455;BME280;10386;54.314;10.022;2023-04-30T03:51:50;102552.31;;;2.94;100.00
20455;BME280;10386;54.314;10.022;2023-04-30T03:54:16;102551.44;;;2.90;100.00
20455;BME280;10386;54.314;10.022;2023-04-30T03:56:43;102548.75;;;2.92;100.00
20455;BME280;10386;54.314;10.022;2023-04-30T03:59:10;102558.53;;;2.94;100.00
20455;BME280;10386;54.314;10.022;2023-04-30T04:01:36;102548.69;;;2.96;100.00
20455;BME280;10386;54.314;10.022;2023-04-30T04:04:03;102562.28;;;2.81;100.00
20455;BME280;10386;54.314;10.022;2023-04-30T04:06:30;102556.06;;;2.79;100.00
20455;BME280;10386;54.314;10.022;2023-04-30T04:08:57;102569.34;;;2.88;100.00
20455;BME280;10386;54.314;10.022;2023-04-30T04:11:24;102564.75;;;2.99;100.00
20455;BME280;10386;54.314;10.022;2023-04-30T04:13:51;102570.06;;;3.05;100.00
20455;BME280;10386;54.314;10.022;2023-04-30T04:16:17;102563.56;;;3.20;100.00
20455;BME280;10386;54.314;10.022;2023-04-30T04:18:44;102563.47;;;3.26;100.00
20455;BME280;10386;54.314;10.022;2023-04-30T04:21:11;102567.03;;;3.29;100.00
20455;BME280;10386;54.314;10.022;2023-04-30T04:23:38;102571.31;;;3.44;100.00
20455;BME280;10386;54.314;10.022;2023-04-30T04:26:05;102572.16;;;3.44;100.00
20455;BME280;10386;54.314;10.022;2023-04-30T04:28:32;102568.38;;;3.57;100.00
20455;BME280;10386;54.314;10.022;2023-04-30T04:30:59;102565.38;;;3.78;100.00
20455;BME280;10386;54.314;10.022;2023-04-30T04:33:25;102567.69;;;4.01;100.00
20455;BME280;10386;54.314;10.022;2023-04-30T04:35:53;102568.84;;;4.36;100.00
20455;BME280;10386;54.314;10.022;2023-04-30T04:38:20;102574.97;;;4.44;100.00
20455;BME280;10386;54.314;10.022;2023-04-30T04:40:52;102565.66;;;4.61;100.00
20455;BME280;10386;54.314;10.022;2023-04-30T04:43:19;102570.06;;;4.65;100.00
20455;BME280;10386;54.314;10.022;2023-04-30T04:45:46;102568.72;;;4.87;100.00
20455;BME280;10386;54.314;10.022;2023-04-30T04:48:13;102563.22;;;4.93;100.00
20455;BME280;10386;54.314;10.022;2023-04-30T04:50:40;102563.59;;;5.18;100.00
20455;BME280;10386;54.314;10.022;2023-04-30T04:53:07;102569.13;;;5.49;100.00
20455;BME280;10386;54.314;10.022;2023-04-30T04:55:34;102567.03;;;5.63;100.00
20455;BME280;10386;54.314;10.022;2023-04-30T04:58:01;102573.06;;;5.73;100.00
20455;BME280;10386;54.314;10.022;2023-04-30T05:00:28;102562.88;;;5.87;100.00
20455;BME280;10386;54.314;10.022;2023-04-30T05:02:55;102569.16;;;5.87;100.00
20455;BME280;10386;54.314;10.022;2023-04-30T05:05:22;102563.72;;;5.89;100.00
20455;BME280;10386;54.314;10.022;2023-04-30T05:07:49;102566.47;;;5.87;100.00
20455;BME280;10386;54.314;10.022;2023-04-30T05:10:20;102575.56;;;5.82;100.00
20455;BME280;10386;54.314;10.022;2023-04-30T05:12:47;102577.31;;;5.84;100.00
20455;BME280;10386;54.314;10.022;2023-04-30T05:15:14;102574.56;;;5.87;100.00
20455;BME280;10386;54.314;10.022;2023-04-30T05:17:40;102575.50;;;5.85;100.00
20455;BME280;10386;54.314;10.022;2023-04-30T05:20:08;102580.63;;;5.97;100.00
20455;BME280;10386;54.314;10.022;2023-04-30T05:22:35;102578.84;;;5.96;100.00
20455;BME280;10386;54.314;10.022;2023-04-30T05:25:01;102582.19;;;6.05;100.00
20455;BME280;10386;54.314;10.022;2023-04-30T05:27:28;102584.50;;;6.20;100.00
20455;BME280;10386;54.314;10.022;2023-04-30T05:29:55;102588.25;;;6.15;100.00
20455;BME280;10386;54.314;10.022;2023-04-30T05:32:22;102591.78;;;6.17;100.00
20455;BME280;10386;54.314;10.022;2023-04-30T05:34:49;102597.63;;;6.34;100.00
20455;BME280;10386;54.314;10.022;2023-04-30T05:37:15;102596.47;;;6.44;100.00
20455;BME280;10386;54.314;10.022;2023-04-30T05:39:45;102594.69;;;6.43;100.00
20455;BME280;10386;54.314;10.022;2023-04-30T05:42:12;102586.66;;;6.41;100.00
20455;BME280;10386;54.314;10.022;2023-04-30T05:44:39;102601.84;;;6.44;100.00
20455;BME280;10386;54.314;10.022;2023-04-30T05:47:06;102591.91;;;6.46;100.00
20455;BME280;10386;54.314;10.022;2023-04-30T05:49:33;102603.47;;;6.51;100.00
20455;BME280;10386;54.314;10.022;2023-04-30T05:52:02;102588.03;;;6.56;100.00
20455;BME280;10386;54.314;10.022;2023-04-30T05:54:29;102588.19;;;6.50;100.00
20455;BME280;10386;54.314;10.022;2023-04-30T05:56:56;102585.31;;;6.57;100.00
20455;BME280;10386;54.314;10.022;2023-04-30T05:59:23;102587.53;;;6.74;100.00
20455;BME280;10386;54.314;10.022;2023-04-30T06:01:50;102592.72;;;6.81;100.00
20455;BME280;10386;54.314;10.022;2023-04-30T06:04:17;102598.72;;;6.92;100.00
20455;BME280;10386;54.314;10.022;2023-04-30T06:06:44;102595.81;;;6.99;100.00
20455;BME280;10386;54.314;10.022;2023-04-30T06:09:11;102588.63;;;6.98;100.00
20455;BME280;10386;54.314;10.022;2023-04-30T06:11:37;102584.19;;;6.96;100.00
20455;BME280;10386;54.314;10.022;2023-04-30T06:14:31;102584.16;;;6.97;100.00
20455;BME280;10386;54.314;10.022;2023-04-30T06:16:58;102586.03;;;7.26;100.00
20455;BME280;10386;54.314;10.022;2023-04-30T06:19:25;102586.91;;;7.26;100.00
20455;BME280;10386;54.314;10.022;2023-04-30T06:21:52;102589.28;;;7.64;100.00
20455;BME280;10386;54.314;10.022;2023-04-30T06:24:21;102585.72;;;8.95;100.00
20455;BME280;10386;54.314;10.022;2023-04-30T06:26:48;102571.19;;;9.87;100.00
20455;BME280;10386;54.314;10.022;2023-04-30T06:29:15;102549.09;;;9.96;100.00
20455;BME280;10386;54.314;10.022;2023-04-30T06:31:41;102541.22;;;9.90;100.00
20455;BME280;10386;54.314;10.022;2023-04-30T06:34:08;102530.91;;;10.21;100.00
20455;BME280;10386;54.314;10.022;2023-04-30T06:36:40;102534.44;;;10.23;100.00
20455;BME280;10386;54.314;10.022;2023-04-30T06:39:08;102535.44;;;10.41;100.00
20455;BME280;10386;54.314;10.022;2023-04-30T06:41:35;102530.66;;;10.67;100.00
20455;BME280;10386;54.314;10.022;2023-04-30T06:44:02;102521.84;;;11.00;100.00
20455;BME280;10386;54.314;10.022;2023-04-30T06:46:28;102517.13;;;10.46;100.00
20455;BME280;10386;54.314;10.022;2023-04-30T06:48:55;102518.81;;;10.88;100.00
20455;BME280;10386;54.314;10.022;2023-04-30T06:51:22;102502.84;;;11.37;100.00
20455;BME280;10386;54.314;10.022;2023-04-30T06:53:51;102499.00;;;11.61;100.00
20455;BME280;10386;54.314;10.022;2023-04-30T06:56:19;102498.53;;;11.15;100.00
20455;BME280;10386;54.314;10.022;2023-04-30T06:58:47;102506.16;;;11.25;100.00
20455;BME280;10386;54.314;10.022;2023-04-30T07:01:15;102505.03;;;10.33;100.00
20455;BME280;10386;54.314;10.022;2023-04-30T07:03:43;102503.66;;;10.03;100.00
20455;BME280;10386;54.314;10.022;2023-04-30T07:06:09;102518.03;;;9.39;100.00
20455;BME280;10386;54.314;10.022;2023-04-30T07:08:36;102537.19;;;9.57;100.00
20455;BME280;10386;54.314;10.022;2023-04-30T07:11:06;102550.59;;;10.26;100.00
20455;BME280;10386;54.314;10.022;2023-04-30T07:13:33;102536.88;;;9.86;100.00
20455;BME280;10386;54.314;10.022;2023-04-30T07:16:00;102523.25;;;10.09;100.00
20455;BME280;10386;54.314;10.022;2023-04-30T07:18:27;102532.06;;;10.14;100.00
20455;BME280;10386;54.314;10.022;2023-04-30T07:20:54;102558.41;;;10.12;100.00
20455;BME280;10386;54.314;10.022;2023-04-30T07:23:23;102537.09;;;9.59;100.00
20455;BME280;10386;54.314;10.022;2023-04-30T07:26:03;102533.44;;;9.60;100.00
20455;BME280;10386;54.314;10.022;2023-04-30T07:28:30;102542.59;;;9.12;100.00
20455;BME280;10386;54.314;10.022;2023-04-30T07:30:57;102560.28;;;8.99;100.00
20455;BME280;10386;54.314;10.022;2023-04-30T07:33:24;102560.03;;;9.05;100.00
20455;BME280;10386;54.314;10.022;2023-04-30T07:35:53;102573.19;;;9.15;100.00
20455;BME280;10386;54.314;10.022;2023-04-30T07:38:21;102565.22;;;8.88;100.00
20455;BME280;10386;54.314;10.022;2023-04-30T07:40:49;102579.81;;;8.84;100.00
20455;BME280;10386;54.314;10.022;2023-04-30T07:43:16;102593.69;;;8.99;100.00
20455;BME280;10386;54.314;10.022;2023-04-30T07:45:44;102580.41;;;8.92;100.00
20455;BME280;10386;54.314;10.022;2023-04-30T07:48:13;102564.81;;;8.49;100.00
20455;BME280;10386;54.314;10.022;2023-04-30T07:50:39;102558.22;;;8.32;100.00
20455;BME280;10386;54.314;10.022;2023-04-30T07:53:06;102578.19;;;9.26;100.00
20455;BME280;10386;54.314;10.022;2023-04-30T07:55:35;102546.44;;;9.52;100.00
20455;BME280;10386;54.314;10.022;2023-04-30T07:58:03;102520.03;;;9.78;100.00
20455;BME280;10386;54.314;10.022;2023-04-30T08:00:32;102515.09;;;10.09;100.00
20455;BME280;10386;54.314;10.022;2023-04-30T08:03:00;102504.94;;;9.50;100.00
20455;BME280;10386;54.314;10.022;2023-04-30T08:05:28;102520.72;;;9.41;100.00
20455;BME280;10386;54.314;10.022;2023-04-30T08:07:55;102538.91;;;9.37;100.00
20455;BME280;10386;54.314;10.022;2023-04-30T08:10:23;102550.81;;;9.33;100.00
20455;BME280;10386;54.314;10.022;2023-04-30T08:12:51;102545.84;;;9.44;100.00
20455;BME280;10386;54.314;10.022;2023-04-30T08:15:20;102537.09;;;9.59;100.00
20455;BME280;10386;54.314;10.022;2023-04-30T08:17:50;102523.25;;;10.09;100.00
20455;BME280;10386;54.314;10.022;2023-04-30T08:20:18;102535.50;;;10.99;100.00
20455;BME280;10386;54.314;10.022;2023-04-30T08:22:46;102494.59;;;10.64;100.00
20455;BME280;10386;54.314;10.022;2023-04-30T08:25:14;102506.00;;;11.10;100.00
20455;BME280;10386;54.314;10.022;2023-04-30T08:27:41;102491.09;;;11.37;100.00
20455;BME280;10386;54.314;10.022;2023-04-30T08:30:08;102493.72;;;11.38;100.00
20455;BME280;10386;54.314;10.022;2023-04-30T08:32:35;102458.59;;;11.71;100.00
20455;BME280;10386;54.314;10.022;2023-04-30T08:35:06;102459.41;;;11.54;100.00
20455;BME280;10386;54.314;10.022;2023-04-30T08:37:33;102475.66;;;10.22;100.00
20455;BME280;10386;54.314;10.022;2023-04-30T08:40:02;102498.81;;;10.09;100.00
20455;BME280;10386;54.314;10.022;2023-04-30T08:42:40;102519.66;;;10.30;100.00
20455;BME280;10386;54.314;10.022;2023-04-30T08:45:13;102529.06;;;11.38;100.00
20455;BME280;10386;54.314;10.022;2023-04-30T08:47:42;102489.28;;;10.99;100.00
20455;BME280;10386;54.314;10.022;2023-04-30T08:50:13;102495.38;;;11.61;100.00
20455;BME280;10386;54.314;10.022;2023-04-30T08:52:42;102489.00;;;11.05;100.00
20455;BME280;10386;54.314;10.022;2023-04-30T08:55:09;102517.31;;;11.19;100.00
20455;BME280;10386;54.314;10.022;2023-04-30T08:57:37;102513.06;;;10.94;100.00
20455;BME280;10386;54.314;10.022;2023-04-30T09:00:06;102535.53;;;10.59;100.00
20455;BME280;10386;54.314;10.022;2023-04-30T09:02:40;102523.69;;;10.80;100.00
20455;BME280;10386;54.314;10.022;2023-04-30T09:05:11;102569.63;;;11.63;100.00
20455;BME280;10386;54.314;10.022;2023-04-30T09:07:43;102492.34;;;11.67;100.00
20455;BME280;10386;54.314;10.022;2023-04-30T09:10:50;102486.38;;;12.46;100.00
20455;BME280;10386;54.314;10.022;2023-04-30T09:13:41;102465.69;;;12.59;100.00
20455;BME280;10386;54.314;10.022;2023-04-30T09:16:26;102466.72;;;12.06;100.00
20455;BME280;10386;54.314;10.022;2023-04-30T09:18:56;102498.78;;;11.83;100.00
20455;BME280;10386;54.314;10.022;2023-04-30T09:21:34;102491.72;;;10.87;100.00
20455;BME280;10386;54.314;10.022;2023-04-30T09:24:04;102541.47;;;11.64;100.00
20455;BME280;10386;54.314;10.022;2023-04-30T09:26:36;102535.00;;;12.37;100.00
20455;BME280;10386;54.314;10.022;2023-04-30T09:29:13;102474.59;;;12.46;100.00
20455;BME280;10386;54.314;10.022;2023-04-30T09:32:05;102463.78;;;12.44;100.00
20455;BME280;10386;54.314;10.022;2023-04-30T09:34:49;102430.13;;;12.78;100.00
20455;BME280;10386;54.314;10.022;2023-04-30T09:37:36;102485.75;;;12.91;100.00
20455;BME280;10386;54.314;10.022;2023-04-30T09:40:11;102471.59;;;12.84;100.00
20455;BME280;10386;54.314;10.022;2023-04-30T09:42:38;102477.16;;;13.31;100.00
20455;BME280;10386;54.314;10.022;2023-04-30T09:45:05;102471.78;;;12.14;100.00
20455;BME280;10386;54.314;10.022;2023-04-30T09:47:33;102497.03;;;11.82;100.00
20455;BME280;10386;54.314;10.022;2023-04-30T09:50:01;102525.44;;;11.58;100.00
20455;BME280;10386;54.314;10.022;2023-04-30T09:52:28;102536.03;;;11.64;100.00
20455;BME280;10386;54.314;10.022;2023-04-30T09:54:54;102556.53;;;12.25;100.00
20455;BME280;10386;54.314;10.022;2023-04-30T09:57:23;102540.53;;;12.86;100.00
20455;BME280;10386;54.314;10.022;2023-04-30T09:59:51;102490.66;;;12.84;100.00
20455;BME280;10386;54.314;10.022;2023-04-30T10:02:18;102477.59;;;13.23;100.00
20455;BME280;10386;54.314;10.022;2023-04-30T10:04:50;102490.19;;;12.76;100.00
20455;BME280;10386;54.314;10.022;2023-04-30T10:07:20;102472.75;;;12.46;100.00
20455;BME280;10386;54.314;10.022;2023-04-30T10:09:58;102524.84;;;13.39;100.00
20455;BME280;10386;54.314;10.022;2023-04-30T10:12:55;102474.84;;;12.91;100.00
20455;BME280;10386;54.314;10.022;2023-04-30T10:15:34;102476.06;;;12.36;100.00
20455;BME280;10386;54.314;10.022;2023-04-30T10:18:07;102486.34;;;12.63;100.00
20455;BME280;10386;54.314;10.022;2023-04-30T10:20:37;102475.53;;;12.62;100.00
20455;BME280;10386;54.314;10.022;2023-04-30T10:23:05;102490.78;;;14.08;100.00
20455;BME280;10386;54.314;10.022;2023-04-30T10:25:32;102453.69;;;12.96;100.00
20455;BME280;10386;54.314;10.022;2023-04-30T10:27:59;102487.28;;;13.44;100.00
20455;BME280;10386;54.314;10.022;2023-04-30T10:30:30;102456.00;;;13.96;100.00
20455;BME280;10386;54.314;10.022;2023-04-30T10:33:25;102465.00;;;13.82;100.00
20455;BME280;10386;54.314;10.022;2023-04-30T10:36:00;102487.22;;;13.46;100.00
20455;BME280;10386;54.314;10.022;2023-04-30T10:38:29;102455.69;;;13.71;100.00
20455;BME280;10386;54.314;10.022;2023-04-30T10:40:57;102458.16;;;13.45;100.00
20455;BME280;10386;54.314;10.022;2023-04-30T10:43:24;102452.16;;;13.38;98.12
20455;BME280;10386;54.314;10.022;2023-04-30T10:45:51;102459.03;;;13.61;99.78
20455;BME280;10386;54.314;10.022;2023-04-30T10:48:21;102466.25;;;13.46;100.00
20455;BME280;10386;54.314;10.022;2023-04-30T10:50:54;102445.09;;;13.03;99.22
20455;BME280;10386;54.314;10.022;2023-04-30T10:53:23;102465.19;;;13.33;100.00
20455;BME280;10386;54.314;10.022;2023-04-30T10:56:04;102474.59;;;13.43;100.00
20455;BME280;10386;54.314;10.022;2023-04-30T10:58:34;102454.53;;;13.13;98.13
20455;BME280;10386;54.314;10.022;2023-04-30T11:01:11;102460.06;;;12.62;97.74
20455;BME280;10386;54.314;10.022;2023-04-30T11:03:40;102469.66;;;12.86;99.08
20455;BME280;10386;54.314;10.022;2023-04-30T11:06:13;102494.13;;;13.20;100.00
20455;BME280;10386;54.314;10.022;2023-04-30T11:08:44;102460.03;;;13.12;99.18
20455;BME280;10386;54.314;10.022;2023-04-30T11:11:17;102463.06;;;12.73;99.66
20455;BME280;10386;54.314;10.022;2023-04-30T11:13:51;102486.97;;;13.02;100.00
20455;BME280;10386;54.314;10.022;2023-04-30T11:16:29;102471.44;;;13.35;99.91
20455;BME280;10386;54.314;10.022;2023-04-30T11:19:05;102503.03;;;13.85;100.00
20455;BME280;10386;54.314;10.022;2023-04-30T11:24:52;102481.28;;;13.53;100.00
20455;BME280;10386;54.314;10.022;2023-04-30T11:27:21;102445.53;;;13.11;99.71
20455;BME280;10386;54.314;10.022;2023-04-30T11:29:49;102448.63;;;12.88;100.00
20455;BME280;10386;54.314;10.022;2023-04-30T11:32:21;102474.06;;;13.52;100.00
20455;BME280;10386;54.314;10.022;2023-04-30T11:34:49;102466.25;;;13.62;100.00
20455;BME280;10386;54.314;10.022;2023-04-30T11:37:22;102453.63;;;14.05;99.96
20455;BME280;10386;54.314;10.022;2023-04-30T11:39:50;102500.47;;;14.43;100.00
20455;BME280;10386;54.314;10.022;2023-04-30T11:42:18;102449.19;;;14.03;100.00
20455;BME280;10386;54.314;10.022;2023-04-30T11:44:45;102468.31;;;14.48;100.00
20455;BME280;10386;54.314;10.022;2023-04-30T11:47:12;102465.41;;;14.51;100.00
20455;BME280;10386;54.314;10.022;2023-04-30T11:49:40;102441.97;;;15.03;97.71
20455;BME280;10386;54.314;10.022;2023-04-30T11:52:07;102451.97;;;14.32;99.49
20455;BME280;10386;54.314;10.022;2023-04-30T11:54:35;102444.94;;;14.13;100.00
20455;BME280;10386;54.314;10.022;2023-04-30T11:57:04;102459.59;;;14.41;100.00
20455;BME280;10386;54.314;10.022;2023-04-30T11:59:39;102435.31;;;13.92;98.03
20455;BME280;10386;54.314;10.022;2023-04-30T12:02:07;102480.94;;;14.64;100.00
20455;BME280;10386;54.314;10.022;2023-04-30T12:04:35;102468.31;;;14.48;100.00
20455;BME280;10386;54.314;10.022;2023-04-30T12:07:02;102432.69;;;14.20;99.15
20455;BME280;10386;54.314;10.022;2023-04-30T12:09:28;102439.06;;;14.05;98.96
20455;BME280;10386;54.314;10.022;2023-04-30T12:11:55;102449.53;;;14.42;99.79
20455;BME280;10386;54.314;10.022;2023-04-30T12:14:23;102416.84;;;14.40;97.27
20455;BME280;10386;54.314;10.022;2023-04-30T12:16:51;102411.91;;;14.89;94.88
20455;BME280;10386;54.314;10.022;2023-04-30T12:19:20;102416.69;;;15.94;94.32
20455;BME280;10386;54.314;10.022;2023-04-30T12:21:47;102398.78;;;15.08;95.09
20455;BME280;10386;54.314;10.022;2023-04-30T12:24:16;102402.66;;;14.91;95.06
20455;BME280;10386;54.314;10.022;2023-04-30T12:26:44;102382.50;;;14.07;92.78
20455;BME280;10386;54.314;10.022;2023-04-30T12:29:15;102425.56;;;14.61;95.82
20455;BME280;10386;54.314;10.022;2023-04-30T12:31:43;102428.97;;;14.64;95.05
20455;BME280;10386;54.314;10.022;2023-04-30T12:34:13;102442.31;;;14.98;97.09
20455;BME280;10386;54.314;10.022;2023-04-30T12:36:40;102431.94;;;15.17;96.40
20455;BME280;10386;54.314;10.022;2023-04-30T12:39:12;102411.13;;;14.59;94.83
20455;BME280;10386;54.314;10.022;2023-04-30T12:41:44;102425.75;;;15.14;94.08
20455;BME280;10386;54.314;10.022;2023-04-30T12:44:22;102408.78;;;15.36;92.78
20455;BME280;10386;54.314;10.022;2023-04-30T12:46:52;102420.56;;;15.37;93.72
20455;BME280;10386;54.314;10.022;2023-04-30T12:49:29;102392.44;;;15.88;90.49
20455;BME280;10386;54.314;10.022;2023-04-30T12:54:30;102382.91;;;15.00;89.75
20455;BME280;10386;54.314;10.022;2023-04-30T12:57:03;102428.34;;;15.57;95.25
20455;BME280;10386;54.314;10.022;2023-04-30T12:59:32;102377.94;;;14.51;91.24
20455;BME280;10386;54.314;10.022;2023-04-30T13:02:09;102409.03;;;13.89;93.40
20455;BME280;10386;54.314;10.022;2023-04-30T13:04:37;102425.56;;;14.47;95.61
20455;BME280;10386;54.314;10.022;2023-04-30T13:07:04;102409.75;;;14.80;93.22
20455;BME280;10386;54.314;10.022;2023-04-30T13:09:35;102421.28;;;14.85;95.01